createdAt,value
2017-09-10T00:00:18.873Z,94603.16
2017-09-10T00:02:46.459Z,94600.72
2017-09-10T00:05:14.097Z,94601.89
2017-09-10T00:07:41.673Z,94604.35
2017-09-10T00:10:09.296Z,94616.13
2017-09-10T00:12:36.849Z,94614.43
2017-09-10T00:15:04.592Z,94611.23
2017-09-10T00:17:32.242Z,94615.78
2017-09-10T00:19:59.861Z,94618.44
2017-09-10T00:22:27.479Z,94617.11
2017-09-10T00:24:55.115Z,94618.27
2017-09-10T00:27:22.755Z,94616.78
2017-09-10T00:29:50.284Z,94615.08
2017-09-10T00:32:17.896Z,94615.48
2017-09-10T00:34:45.489Z,94610.94
2017-09-10T00:37:13.125Z,94612.45
2017-09-10T00:39:40.724Z,94611.91
2017-09-10T00:42:08.246Z,94608.31
2017-09-10T00:44:35.958Z,94609.09
2017-09-10T00:47:03.557Z,94625.59
2017-09-10T00:49:31.084Z,94616.14
2017-09-10T00:51:59.232Z,94611.97
2017-09-10T00:54:26.828Z,94617.11
2017-09-10T00:56:54.435Z,94612.37
2017-09-10T00:59:22.101Z,94626.02
2017-09-10T01:01:49.711Z,94629.46
2017-09-10T01:04:17.447Z,94630.81
2017-09-10T01:06:45.026Z,94631.77
2017-09-10T01:09:12.618Z,94632.55
2017-09-10T01:11:40.241Z,94621.55
2017-09-10T01:14:07.846Z,94628.78
2017-09-10T01:16:35.678Z,94628.59
2017-09-10T01:19:03.462Z,94628.24
2017-09-10T01:21:31.022Z,94615.00
2017-09-10T01:23:58.570Z,94614.08
2017-09-10T01:26:26.145Z,94620.55
2017-09-10T01:28:53.910Z,94624.34
2017-09-10T01:31:21.701Z,94626.27
2017-09-10T01:33:49.404Z,94624.98
2017-09-10T01:36:17.002Z,94634.98
2017-09-10T01:38:44.548Z,94629.52
2017-09-10T01:41:12.143Z,94636.71
2017-09-10T01:43:39.755Z,94642.61
2017-09-10T01:46:07.411Z,94630.70
2017-09-10T01:48:34.996Z,94624.06
2017-09-10T01:51:02.559Z,94629.94
2017-09-10T01:53:30.171Z,94631.48
2017-09-10T01:55:57.789Z,94620.71
2017-09-10T01:58:25.425Z,94617.30
2017-09-10T02:00:53.193Z,94637.77
2017-09-10T02:03:20.788Z,94619.41
2017-09-10T02:05:50.351Z,94625.28
2017-09-10T02:08:19.350Z,94634.56
2017-09-10T02:10:46.993Z,94622.47
2017-09-10T02:13:14.641Z,94617.95
2017-09-10T02:15:42.316Z,94621.16
2017-09-10T02:18:09.973Z,94630.45
2017-09-10T02:20:37.596Z,94622.33
2017-09-10T02:23:05.172Z,94628.04
2017-09-10T02:25:32.723Z,94628.04
2017-09-10T02:28:00.279Z,94613.64
2017-09-10T02:30:28.084Z,94617.45
2017-09-10T02:32:55.610Z,94619.34
2017-09-10T02:35:23.390Z,94608.95
2017-09-10T02:37:50.966Z,94606.48
2017-09-10T02:40:18.600Z,94606.11
2017-09-10T02:42:46.210Z,94607.66
2017-09-10T02:45:13.919Z,94617.50
2017-09-10T02:47:41.521Z,94613.74
2017-09-10T02:50:09.060Z,94601.80
2017-09-10T02:52:36.644Z,94605.24
2017-09-10T02:55:04.536Z,94613.95
2017-09-10T02:57:32.058Z,94616.80
2017-09-10T02:59:59.757Z,94614.92
2017-09-10T03:02:27.499Z,94617.39
2017-09-10T03:04:55.040Z,94607.38
2017-09-10T03:07:23.360Z,94612.87
2017-09-10T03:09:50.968Z,94616.09
2017-09-10T03:12:18.583Z,94608.73
2017-09-10T03:14:46.130Z,94618.01
2017-09-10T03:17:13.700Z,94627.31
2017-09-10T03:19:41.749Z,94630.91
2017-09-10T03:22:09.351Z,94629.98
2017-09-10T03:24:36.991Z,94624.31
2017-09-10T03:27:04.603Z,94629.23
2017-09-10T03:29:32.187Z,94635.13
2017-09-10T03:32:00.768Z,94638.73
2017-09-10T03:34:28.326Z,94629.85
2017-09-10T03:36:55.884Z,94634.39
2017-09-10T03:39:23.649Z,94634.78
2017-09-10T03:41:51.271Z,94636.88
2017-09-10T03:44:18.885Z,94628.55
2017-09-10T03:46:46.451Z,94631.80
2017-09-10T03:49:14.221Z,94640.88
2017-09-10T03:51:41.753Z,94625.19
2017-09-10T03:54:09.341Z,94625.76
2017-09-10T03:56:36.882Z,94624.27
2017-09-10T03:59:04.398Z,94630.52
2017-09-10T04:01:32.194Z,94627.48
2017-09-10T04:03:59.711Z,94625.05
2017-09-10T04:06:27.321Z,94629.03
2017-09-10T04:08:54.990Z,94627.89
2017-09-10T04:11:22.760Z,94620.50
2017-09-10T04:13:50.347Z,94618.44
2017-09-10T04:16:17.925Z,94624.86
2017-09-10T04:18:45.537Z,94625.23
2017-09-10T04:21:13.095Z,94630.76
2017-09-10T04:23:40.927Z,94631.62
2017-09-10T04:26:08.525Z,94633.52
2017-09-10T04:28:36.191Z,94643.77
2017-09-10T04:31:03.847Z,94646.64
2017-09-10T04:33:31.432Z,94652.39
2017-09-10T04:35:59.021Z,94642.94
2017-09-10T04:38:26.814Z,94649.78
2017-09-10T04:40:54.419Z,94650.98
2017-09-10T04:43:22.025Z,94646.77
2017-09-10T04:45:49.641Z,94642.33
2017-09-10T04:48:18.320Z,94644.63
2017-09-10T04:50:45.877Z,94653.06
2017-09-10T04:53:13.406Z,94655.63
2017-09-10T04:55:41.001Z,94664.11
2017-09-10T04:58:08.548Z,94667.59
2017-09-10T05:00:36.153Z,94664.52
2017-09-10T05:03:03.757Z,94662.12
2017-09-10T05:05:31.383Z,94657.75
2017-09-10T05:07:58.916Z,94656.92
2017-09-10T05:10:26.572Z,94666.37
2017-09-10T05:12:54.196Z,94670.22
2017-09-10T05:15:21.729Z,94668.76
2017-09-10T05:17:49.322Z,94659.14
2017-09-10T05:20:16.884Z,94664.86
2017-09-10T05:22:44.399Z,94666.81
2017-09-10T05:25:12.284Z,94662.29
2017-09-10T05:27:39.883Z,94659.63
2017-09-10T05:30:07.538Z,94664.40
2017-09-10T05:32:35.094Z,94660.42
2017-09-10T05:35:02.668Z,94659.03
2017-09-10T05:37:30.209Z,94664.91
2017-09-10T05:39:57.844Z,94658.47
2017-09-10T05:42:25.482Z,94661.09
2017-09-10T05:44:53.005Z,94655.54
2017-09-10T05:47:20.602Z,94664.42
2017-09-10T05:49:48.216Z,94669.14
2017-09-10T05:52:15.845Z,94665.28
2017-09-10T05:54:43.453Z,94658.81
2017-09-10T05:57:11.030Z,94658.56
2017-09-10T05:59:38.570Z,94662.90
2017-09-10T06:02:06.203Z,94660.78
2017-09-10T06:04:33.732Z,94656.94
2017-09-10T06:07:01.286Z,94663.52
2017-09-10T06:09:28.926Z,94660.99
2017-09-10T06:11:56.597Z,94662.07
2017-09-10T06:14:24.331Z,94661.88
2017-09-10T06:16:51.861Z,94663.91
2017-09-10T06:19:19.410Z,94661.22
2017-09-10T06:21:47.113Z,94659.08
2017-09-10T06:24:14.629Z,94666.26
2017-09-10T06:26:42.176Z,94670.02
2017-09-10T06:29:10.053Z,94667.31
2017-09-10T06:31:37.916Z,94665.35
2017-09-10T06:34:06.244Z,94664.53
2017-09-10T06:36:35.063Z,94663.14
2017-09-10T06:39:02.968Z,94658.94
2017-09-10T06:41:31.827Z,94665.48
2017-09-10T06:44:00.224Z,94667.92
2017-09-10T06:46:28.093Z,94673.94
2017-09-10T06:48:55.956Z,94673.52
2017-09-10T06:51:23.815Z,94681.84
2017-09-10T06:53:51.751Z,94679.72
2017-09-10T06:56:19.764Z,94685.93
2017-09-10T06:58:49.149Z,94691.02
2017-09-10T07:01:18.924Z,94687.16
2017-09-10T07:03:47.778Z,94691.12
2017-09-10T07:06:15.583Z,94688.05
2017-09-10T07:08:43.757Z,94691.06
2017-09-10T07:11:12.381Z,94695.58
2017-09-10T07:13:40.257Z,94695.90
2017-09-10T07:16:08.107Z,94691.88
2017-09-10T07:18:36.895Z,94693.75
2017-09-10T07:21:04.787Z,94701.50
2017-09-10T07:23:32.666Z,94698.84
2017-09-10T07:26:00.417Z,94707.14
2017-09-10T07:28:28.018Z,94708.66
2017-09-10T07:30:55.753Z,94707.48
2017-09-10T07:33:23.315Z,94707.98
2017-09-10T07:35:50.979Z,94716.72
2017-09-10T07:38:18.618Z,94706.78
2017-09-10T07:40:46.222Z,94712.27
2017-09-10T07:43:15.049Z,94711.28
2017-09-10T07:45:42.611Z,94712.58
2017-09-10T07:48:10.456Z,94716.56
2017-09-10T07:50:38.064Z,94715.73
2017-09-10T07:53:06.631Z,94719.51
2017-09-10T07:55:34.227Z,94710.95
2017-09-10T07:58:01.882Z,94709.06
2017-09-10T08:00:29.485Z,94712.98
2017-09-10T08:02:57.121Z,94713.55
2017-09-10T08:05:24.942Z,94711.24
2017-09-10T08:07:52.508Z,94711.05
2017-09-10T08:10:20.168Z,94715.80
2017-09-10T08:12:47.774Z,94713.48
2017-09-10T08:15:15.435Z,94710.64
2017-09-10T08:17:43.182Z,94717.60
2017-09-10T08:20:10.799Z,94715.16
2017-09-10T08:22:39.142Z,94708.48
2017-09-10T08:25:06.787Z,94711.71
2017-09-10T08:27:34.351Z,94717.19
2017-09-10T08:30:01.988Z,94714.34
2017-09-10T08:32:29.654Z,94712.06
2017-09-10T08:34:57.258Z,94720.20
2017-09-10T08:37:24.861Z,94713.17
2017-09-10T08:39:52.460Z,94711.05
2017-09-10T08:42:20.199Z,94713.55
2017-09-10T08:44:47.924Z,94709.40
2017-09-10T08:47:15.538Z,94712.75
2017-09-10T08:49:43.148Z,94703.83
2017-09-10T08:52:10.832Z,94699.84
2017-09-10T08:54:38.446Z,94696.26
2017-09-10T08:57:06.131Z,94689.61
2017-09-10T08:59:33.760Z,94693.76
2017-09-10T09:02:01.473Z,94687.30
2017-09-10T09:04:29.052Z,94695.47
2017-09-10T09:06:56.629Z,94695.84
2017-09-10T09:09:24.210Z,94690.33
2017-09-10T09:11:51.855Z,94683.42
2017-09-10T09:14:19.423Z,94681.69
2017-09-10T09:16:47.433Z,94681.42
2017-09-10T09:19:15.142Z,94678.73
2017-09-10T09:21:42.811Z,94675.44
2017-09-10T09:24:10.416Z,94676.19
2017-09-10T09:26:38.089Z,94667.63
2017-09-10T09:29:05.728Z,94660.34
2017-09-10T09:31:33.329Z,94664.45
2017-09-10T09:34:00.986Z,94657.05
2017-09-10T09:36:28.587Z,94658.94
2017-09-10T09:38:56.213Z,94653.55
2017-09-10T09:41:23.878Z,94650.13
2017-09-10T09:43:51.683Z,94645.88
2017-09-10T09:46:19.392Z,94648.66
2017-09-10T09:48:46.999Z,94646.75
2017-09-10T09:51:14.752Z,94646.34
2017-09-10T09:53:42.589Z,94641.70
2017-09-10T09:56:10.225Z,94636.34
2017-09-10T09:58:37.894Z,94631.70
2017-09-10T10:01:05.527Z,94629.23
2017-09-10T10:03:33.382Z,94636.61
2017-09-10T10:06:01.011Z,94638.92
2017-09-10T10:08:28.660Z,94633.19
2017-09-10T10:10:56.292Z,94623.23
2017-09-10T10:13:23.880Z,94631.33
2017-09-10T10:15:51.503Z,94623.15
2017-09-10T10:18:19.127Z,94619.31
2017-09-10T10:20:47.220Z,94606.69
2017-09-10T10:23:14.933Z,94596.61
2017-09-10T10:25:42.515Z,94600.22
2017-09-10T10:28:10.205Z,94600.34
2017-09-10T10:30:37.792Z,94601.62
2017-09-10T10:33:05.507Z,94594.17
2017-09-10T10:35:33.427Z,94590.34
2017-09-10T10:38:01.620Z,94594.52
2017-09-10T10:40:29.293Z,94599.03
2017-09-10T10:42:56.976Z,94598.81
2017-09-10T10:45:24.672Z,94603.14
2017-09-10T10:47:53.549Z,94603.10
2017-09-10T10:52:52.879Z,94589.52
2017-09-10T10:55:20.784Z,94584.58
2017-09-10T10:57:49.155Z,94587.77
2017-09-10T11:00:16.925Z,94593.78
2017-09-10T11:02:44.737Z,94600.24
2017-09-10T11:05:12.673Z,94598.31
2017-09-10T11:07:40.757Z,94601.53
2017-09-10T11:10:09.312Z,94598.64
2017-09-10T11:12:37.665Z,94598.60
2017-09-10T11:15:05.685Z,94602.02
2017-09-10T11:17:33.640Z,94595.52
2017-09-10T11:20:01.295Z,94595.86
2017-09-10T11:22:28.947Z,94593.34
2017-09-10T11:24:56.598Z,94588.39
2017-09-10T11:27:24.224Z,94587.02
2017-09-10T11:29:51.835Z,94585.84
2017-09-10T11:32:19.504Z,94585.45
2017-09-10T11:34:47.505Z,94583.52
2017-09-10T11:37:15.240Z,94576.44
2017-09-10T11:39:43.111Z,94578.15
2017-09-10T11:42:10.767Z,94580.01
2017-09-10T11:44:38.387Z,94584.19
2017-09-10T11:47:05.964Z,94579.77
2017-09-10T11:49:33.627Z,94578.06
2017-09-10T11:52:01.292Z,94579.34
2017-09-10T11:54:29.156Z,94576.64
2017-09-10T11:56:56.783Z,94583.64
2017-09-10T11:59:24.627Z,94573.75
2017-09-10T12:01:52.198Z,94568.00
2017-09-10T12:04:19.877Z,94566.81
2017-09-10T12:06:47.522Z,94568.48
2017-09-10T12:09:15.252Z,94563.69
2017-09-10T12:11:42.923Z,94563.11
2017-09-10T12:14:10.546Z,94557.94
2017-09-10T12:16:38.193Z,94553.94
2017-09-10T12:19:05.899Z,94551.66
2017-09-10T12:21:33.463Z,94552.45
2017-09-10T12:24:01.150Z,94552.19
2017-09-10T12:26:28.785Z,94547.39
2017-09-10T12:28:56.435Z,94544.30
2017-09-10T12:31:24.010Z,94540.48
2017-09-10T12:33:51.687Z,94528.70
2017-09-10T12:36:20.194Z,94532.49
2017-09-10T12:38:47.830Z,94530.13
2017-09-10T12:41:15.443Z,94532.95
2017-09-10T12:43:43.093Z,94531.89
2017-09-10T12:46:10.749Z,94528.33
2017-09-10T12:48:39.163Z,94525.61
2017-09-10T12:51:06.908Z,94522.00
2017-09-10T12:53:36.374Z,94515.69
2017-09-10T12:56:04.654Z,94511.87
2017-09-10T13:01:05.668Z,94512.06
2017-09-10T13:03:35.502Z,94508.02
2017-09-10T13:06:06.022Z,94512.50
2017-09-10T13:08:33.669Z,94509.98
2017-09-10T13:11:01.295Z,94503.33
2017-09-10T13:13:29.504Z,94509.41
2017-09-10T13:15:57.102Z,94507.27
2017-09-10T13:18:24.767Z,94503.66
2017-09-10T13:20:52.431Z,94502.47
2017-09-10T13:23:20.094Z,94498.66
2017-09-10T13:25:47.669Z,94495.98
2017-09-10T13:28:15.349Z,94493.25
2017-09-10T13:30:42.988Z,94491.72
2017-09-10T13:33:10.538Z,94491.14
2017-09-10T13:35:38.195Z,94490.33
2017-09-10T13:38:05.734Z,94488.39
2017-09-10T13:40:33.265Z,94480.78
2017-09-10T13:43:00.883Z,94477.31
2017-09-10T13:45:28.522Z,94482.44
2017-09-10T13:47:56.500Z,94476.35
2017-09-10T13:50:24.120Z,94470.83
2017-09-10T13:52:51.686Z,94469.69
2017-09-10T13:55:19.276Z,94462.83
2017-09-10T13:57:46.866Z,94468.89
2017-09-10T14:00:14.496Z,94467.13
2017-09-10T14:02:42.127Z,94473.36
2017-09-10T14:05:09.820Z,94479.72
2017-09-10T14:07:37.378Z,94483.67
2017-09-10T14:10:04.928Z,94478.49
2017-09-10T14:12:40.355Z,94481.88
2017-09-10T14:15:08.021Z,94482.64
2017-09-10T14:17:35.639Z,94485.30
2017-09-10T14:20:03.438Z,94483.55
2017-09-10T14:22:31.072Z,94481.68
2017-09-10T14:24:58.643Z,94484.73
2017-09-10T14:28:20.267Z,94480.67
2017-09-10T14:30:47.902Z,94475.70
2017-09-10T14:33:15.692Z,94479.88
2017-09-10T14:35:43.221Z,94484.02
2017-09-10T14:38:24.375Z,94484.25
2017-09-10T14:40:52.020Z,94484.98
2017-09-10T14:43:32.681Z,94481.16
2017-09-10T14:46:00.337Z,94486.83
2017-09-10T14:48:28.199Z,94492.92
2017-09-10T14:50:55.892Z,94495.59
2017-09-10T14:53:23.606Z,94498.78
2017-09-10T14:55:51.241Z,94491.97
2017-09-10T14:58:18.865Z,94493.45
2017-09-10T15:00:46.442Z,94493.83
2017-09-10T15:03:14.080Z,94490.96
2017-09-10T15:05:41.735Z,94494.58
2017-09-10T15:08:16.649Z,94498.35
2017-09-10T15:10:44.364Z,94501.97
2017-09-10T15:13:12.149Z,94507.11
2017-09-10T15:15:39.783Z,94508.06
2017-09-10T15:18:07.423Z,94509.77
2017-09-10T15:20:35.018Z,94509.55
2017-09-10T15:23:02.660Z,94511.86
2017-09-10T15:25:30.218Z,94512.59
2017-09-10T15:27:57.830Z,94500.59
2017-09-10T15:30:26.119Z,94499.86
2017-09-10T15:32:53.921Z,94503.63
2017-09-10T15:35:21.649Z,94502.20
2017-09-10T15:37:49.174Z,94501.92
2017-09-10T15:40:16.765Z,94501.55
2017-09-10T15:42:44.442Z,94499.86
2017-09-10T15:48:04.030Z,94501.02
2017-09-10T15:50:31.641Z,94498.16
2017-09-10T15:52:59.247Z,94500.44
2017-09-10T15:55:26.792Z,94500.82
2017-09-10T15:57:54.409Z,94504.64
2017-09-10T16:00:22.764Z,94503.59
2017-09-10T16:02:50.410Z,94502.48
2017-09-10T16:05:18.034Z,94506.73
2017-09-10T16:07:45.743Z,94506.20
2017-09-10T16:10:13.998Z,94502.25
2017-09-10T16:12:41.596Z,94501.95
2017-09-10T16:15:09.246Z,94503.91
2017-09-10T16:17:49.991Z,94505.67
2017-09-10T16:20:17.606Z,94506.85
2017-09-10T16:22:45.131Z,94504.81
2017-09-10T16:25:12.825Z,94500.28
2017-09-10T16:27:40.486Z,94507.38
2017-09-10T16:30:09.680Z,94508.98
2017-09-10T16:32:45.005Z,94512.07
2017-09-10T16:35:12.685Z,94504.73
2017-09-10T16:37:40.367Z,94508.50
2017-09-10T16:40:08.951Z,94502.27
2017-09-10T16:42:36.553Z,94504.55
2017-09-10T16:45:04.153Z,94504.78
2017-09-10T16:47:31.786Z,94500.61
2017-09-10T16:49:59.533Z,94509.62
2017-09-10T16:52:27.241Z,94509.25
2017-09-10T16:57:28.880Z,94514.30
2017-09-10T17:00:04.545Z,94517.94
2017-09-10T17:02:39.357Z,94523.17
2017-09-10T17:05:07.038Z,94524.92
2017-09-10T17:07:34.633Z,94523.03
2017-09-10T17:10:02.260Z,94527.68
2017-09-10T17:12:29.882Z,94525.59
2017-09-10T17:14:58.799Z,94492.05
2017-09-10T17:17:26.371Z,94532.72
2017-09-10T17:19:53.979Z,94532.99
2017-09-10T17:22:21.603Z,94544.07
2017-09-10T17:24:56.153Z,94551.00
2017-09-10T17:27:23.758Z,94547.95
2017-09-10T17:29:51.587Z,94545.72
2017-09-10T17:32:19.166Z,94555.47
2017-09-10T17:34:46.743Z,94557.22
2017-09-10T17:37:14.379Z,94561.22
2017-09-10T17:39:42.019Z,94559.92
2017-09-10T17:42:09.537Z,94564.16
2017-09-10T17:44:37.128Z,94568.42
2017-09-10T17:47:04.760Z,94569.00
2017-09-10T17:49:32.525Z,94571.13
2017-09-10T17:52:00.470Z,94575.32
2017-09-10T17:54:28.040Z,94574.64
2017-09-10T17:56:55.664Z,94577.34
2017-09-10T17:59:23.266Z,94580.27
2017-09-10T18:01:51.000Z,94584.31
2017-09-10T18:04:25.862Z,94579.94
2017-09-10T18:06:56.558Z,94582.06
2017-09-10T18:09:24.301Z,94585.38
2017-09-10T18:11:51.815Z,94582.91
2017-09-10T18:14:19.409Z,94588.13
2017-09-10T18:16:47.038Z,94589.65
2017-09-10T18:19:14.607Z,94588.39
2017-09-10T18:21:42.164Z,94590.52
2017-09-10T18:24:09.888Z,94589.19
2017-09-10T18:26:37.478Z,94595.50
2017-09-10T18:29:05.067Z,94597.63
2017-09-10T18:31:33.309Z,94605.66
2017-09-10T18:34:00.944Z,94606.84
2017-09-10T18:36:28.703Z,94607.61
2017-09-10T18:38:56.326Z,94599.63
2017-09-10T18:41:23.944Z,94597.37
2017-09-10T18:43:51.583Z,94594.03
2017-09-10T18:46:19.167Z,94596.16
2017-09-10T18:48:46.822Z,94601.90
2017-09-10T18:51:14.382Z,94606.69
2017-09-10T18:53:42.041Z,94599.84
2017-09-10T18:56:09.565Z,94597.26
2017-09-10T18:58:37.162Z,94597.83
2017-09-10T19:01:04.718Z,94601.48
2017-09-10T19:03:32.361Z,94601.17
2017-09-10T19:05:59.903Z,94599.70
2017-09-10T19:08:27.497Z,94597.11
2017-09-10T19:10:55.078Z,94606.61
2017-09-10T19:13:22.643Z,94608.36
2017-09-10T19:15:50.219Z,94609.16
2017-09-10T19:18:28.349Z,94604.25
2017-09-10T19:20:56.064Z,94613.64
2017-09-10T19:23:23.696Z,94611.40
2017-09-10T19:25:51.278Z,94607.22
2017-09-10T19:28:18.889Z,94607.09
2017-09-10T19:30:46.462Z,94614.70
2017-09-10T19:35:58.984Z,94609.84
2017-09-10T19:38:26.625Z,94609.84
2017-09-10T19:40:54.179Z,94622.23
2017-09-10T19:43:21.827Z,94626.48
2017-09-10T19:45:49.641Z,94629.14
2017-09-10T19:48:17.171Z,94630.51
2017-09-10T19:50:44.855Z,94625.60
2017-09-10T19:53:12.430Z,94629.06
2017-09-10T19:55:50.578Z,94621.12
2017-09-10T19:58:18.373Z,94621.34
2017-09-10T20:00:53.320Z,94624.41
2017-09-10T20:03:20.995Z,94623.88
2017-09-10T20:05:48.687Z,94618.02
2017-09-10T20:08:24.011Z,94628.09
2017-09-10T20:10:51.570Z,94622.46
2017-09-10T20:13:19.205Z,94629.48
2017-09-10T20:15:46.793Z,94637.88
2017-09-10T20:18:17.534Z,94647.00
2017-09-10T20:20:45.086Z,94650.84
2017-09-10T20:23:12.698Z,94664.92
2017-09-10T20:25:40.269Z,94666.09
2017-09-10T20:28:15.239Z,94659.07
2017-09-10T20:30:42.847Z,94659.27
2017-09-10T20:33:10.389Z,94662.14
2017-09-10T20:35:38.001Z,94664.84
2017-09-10T20:38:05.522Z,94660.69
2017-09-10T20:40:33.282Z,94659.78
2017-09-10T20:43:00.869Z,94658.48
2017-09-10T20:45:36.419Z,94664.94
2017-09-10T20:48:03.993Z,94666.71
2017-09-10T20:50:31.569Z,94672.60
2017-09-10T20:52:59.125Z,94678.52
2017-09-10T20:55:26.819Z,94685.55
2017-09-10T20:57:54.394Z,94685.23
2017-09-10T21:00:22.030Z,94688.08
2017-09-10T21:02:59.767Z,94691.91
2017-09-10T21:05:27.309Z,94684.12
2017-09-10T21:08:03.583Z,94686.81
2017-09-10T21:10:31.378Z,94688.23
2017-09-10T21:12:59.160Z,94690.11
2017-09-10T21:15:26.777Z,94691.66
2017-09-10T21:17:54.375Z,94682.77
2017-09-10T21:23:01.583Z,94686.59
2017-09-10T21:25:29.193Z,94691.56
2017-09-10T21:27:56.903Z,94697.64
2017-09-10T21:30:24.429Z,94697.48
2017-09-10T21:32:52.130Z,94700.71
2017-09-10T21:35:19.809Z,94702.10
2017-09-10T21:37:47.413Z,94700.77
2017-09-10T21:40:15.142Z,94704.19
2017-09-10T21:42:42.721Z,94691.12
2017-09-10T21:45:10.297Z,94692.86
2017-09-10T21:47:37.847Z,94693.65
2017-09-10T21:50:05.421Z,94695.17
2017-09-10T21:52:32.961Z,94689.31
2017-09-10T21:55:00.492Z,94689.16
2017-09-10T21:57:28.140Z,94693.33
2017-09-10T21:59:55.775Z,94701.52
2017-09-10T22:02:30.898Z,94700.03
2017-09-10T22:04:58.715Z,94691.47
2017-09-10T22:07:26.532Z,94687.04
2017-09-10T22:09:54.177Z,94685.33
2017-09-10T22:12:21.767Z,94685.14
2017-09-10T22:14:49.383Z,94692.16
2017-09-10T22:17:17.059Z,94681.19
2017-09-10T22:19:44.622Z,94689.00
2017-09-10T22:22:12.244Z,94689.95
2017-09-10T22:24:40.075Z,94680.30
2017-09-10T22:27:07.757Z,94683.36
2017-09-10T22:29:38.355Z,94685.33
2017-09-10T22:32:06.002Z,94687.22
2017-09-10T22:34:33.673Z,94689.88
2017-09-10T22:37:01.409Z,94690.09
2017-09-10T22:39:36.109Z,94694.27
2017-09-10T22:42:11.068Z,94684.69
2017-09-10T22:44:46.096Z,94684.47
2017-09-10T22:47:13.685Z,94679.46
2017-09-10T22:49:55.041Z,94681.84
2017-09-10T22:52:22.661Z,94681.14
2017-09-10T22:54:50.293Z,94686.45
2017-09-10T22:57:17.944Z,94687.78
2017-09-10T22:59:45.627Z,94688.95
2017-09-10T23:02:13.300Z,94687.44
2017-09-10T23:04:40.958Z,94691.42
2017-09-10T23:07:08.610Z,94682.53
2017-09-10T23:09:36.221Z,94681.80
2017-09-10T23:12:04.010Z,94678.00
2017-09-10T23:14:31.519Z,94676.30
2017-09-10T23:16:59.362Z,94678.22
2017-09-10T23:19:26.977Z,94676.89
2017-09-10T23:21:54.587Z,94679.52
2017-09-10T23:24:29.174Z,94687.91
2017-09-10T23:26:56.868Z,94686.00
2017-09-10T23:29:24.500Z,94684.14
2017-09-10T23:31:52.196Z,94682.65
2017-09-10T23:34:19.841Z,94676.20
2017-09-10T23:36:47.576Z,94672.63
2017-09-10T23:45:57.260Z,94677.42
2017-09-10T23:48:25.025Z,94677.27
2017-09-10T23:50:52.642Z,94676.88
2017-09-10T23:53:23.057Z,94680.48
2017-09-10T23:55:50.901Z,94679.38
2017-09-10T23:58:18.463Z,94678.45
